Time;durP1;ratioP1;P1;durP2;ratioP2;P2;SDS_P1;SDS_P2;PMS_P1;PMS_P2;Temp;Humidity;BMP_temperature;BMP_pressure;BME280_temperature;BME280_humidity;BME280_pressure;Samples;Min_cycle;Max_cycle;Signal;HPM_P1;HPM_P2
2023/05/08 00:01:07;;;;;;;8.45;7.55;;;16.40;99.90;;;;;;5071887;28;20208;-50
2023/05/08 00:03:36;;;;;;;7.85;7.05;;;16.50;99.90;;;;;;5071485;28;20256;-49
2023/05/08 00:06:16;;;;;;;12.90;7.65;;;16.40;99.90;;;;;;5069810;28;20225;-50
2023/05/08 00:08:52;;;;;;;9.18;7.22;;;16.40;99.90;;;;;;5070074;28;20627;-50
2023/05/08 00:11:21;;;;;;;8.68;7.40;;;16.40;99.90;;;;;;5069880;28;20549;-50
2023/05/08 00:13:47;;;;;;;9.15;7.55;;;16.50;99.90;;;;;;5069855;28;20192;-50
2023/05/08 00:16:23;;;;;;;13.02;8.15;;;16.50;99.90;;;;;;5069806;28;20184;-49
2023/05/08 00:19:03;;;;;;;9.48;8.50;;;16.50;99.90;;;;;;5071159;28;20177;-50
2023/05/08 00:21:38;;;;;;;10.45;9.35;;;16.50;99.90;;;;;;5070084;28;20209;-49
2023/05/08 00:24:20;;;;;;;;;;;;;;;;;;;;;
2023/05/08 00:27:08;;;;;;;;;;;;;;;;;;;;;
2023/05/08 00:29:46;;;;;;;11.63;8.23;;;16.30;99.90;;;;;;5071242;28;20174;-50
2023/05/08 00:33:00;;;;;;;8.15;7.30;;;16.30;99.90;;;;;;5069779;28;20199;-50
2023/05/08 00:35:31;;;;;;;8.98;7.20;;;16.30;99.90;;;;;;5064951;28;20202;-49
2023/05/08 00:38:03;;;;;;;8.48;7.32;;;16.20;99.90;;;;;;5071520;28;20194;-50
2023/05/08 00:40:53;;;;;;;;;;;;;;;;;;;;;
2023/05/08 00:43:27;;;;;;;8.60;7.80;;;16.30;99.90;;;;;;5071067;28;20387;-49
2023/05/08 00:46:00;;;;;;;14.88;7.75;;;16.30;99.90;;;;;;5070005;28;20185;-49
2023/05/08 00:48:29;;;;;;;9.88;7.90;;;16.20;99.90;;;;;;5070631;28;20166;-49
2023/05/08 00:51:03;;;;;;;8.40;7.57;;;16.10;99.90;;;;;;5071810;28;20166;-49
2023/05/08 00:53:32;;;;;;;12.48;9.07;;;16.10;99.90;;;;;;5070226;28;20174;-49
2023/05/08 00:56:27;;;;;;;11.38;9.02;;;16.10;99.90;;;;;;5070307;28;20202;-49
2023/05/08 00:59:10;;;;;;;9.88;8.15;;;16.20;99.90;;;;;;5071210;28;20253;-49
2023/05/08 01:01:49;;;;;;;11.02;8.55;;;16.20;99.90;;;;;;5069712;28;20202;-49
2023/05/08 01:04:43;;;;;;;11.68;9.27;;;16.30;99.90;;;;;;5070893;28;20205;-49
2023/05/08 01:07:09;;;;;;;12.68;11.38;;;16.20;99.90;;;;;;5070462;28;20226;-50
2023/05/08 01:09:44;;;;;;;15.30;10.82;;;16.20;99.90;;;;;;5071592;28;20166;-49
2023/05/08 01:12:39;;;;;;;12.30;11.10;;;16.20;99.90;;;;;;5073249;28;20178;-50
2023/05/08 01:15:15;;;;;;;13.57;12.18;;;16.20;99.90;;;;;;5073921;28;20181;-49
2023/05/08 01:19:09;;;;;;;;;;;;;;;;;;;;;
2023/05/08 01:21:46;;;;;;;12.20;10.98;;;16.20;99.90;;;;;;5046337;28;20256;-49
2023/05/08 01:24:25;;;;;;;13.18;11.77;;;16.20;99.90;;;;;;5035495;28;20171;-50
2023/05/08 01:27:12;;;;;;;14.02;12.27;;;16.20;99.90;;;;;;5052357;28;20174;-49
2023/05/08 01:30:00;;;;;;;15.70;13.90;;;16.20;99.90;;;;;;5075857;28;20186;-49
2023/05/08 01:32:38;;;;;;;16.45;13.48;;;16.20;99.90;;;;;;5073235;28;20223;-48
2023/05/08 01:35:23;;;;;;;15.35;13.32;;;16.10;99.90;;;;;;5073093;28;20227;-49
2023/05/08 01:38:12;;;;;;;17.05;13.75;;;16.10;99.90;;;;;;5073266;28;20261;-49
2023/05/08 01:41:29;;;;;;;14.27;12.77;;;16.00;99.90;;;;;;5074073;28;20206;-49
2023/05/08 01:44:15;;;;;;;14.68;13.10;;;16.00;99.90;;;;;;5073727;28;20174;-50
2023/05/08 01:46:55;;;;;;;14.77;12.98;;;16.00;99.90;;;;;;5074051;28;20166;-49
2023/05/08 01:49:51;;;;;;;14.77;13.27;;;16.00;99.90;;;;;;5072608;28;20165;-49
2023/05/08 01:52:41;;;;;;;15.88;12.57;;;16.00;99.90;;;;;;5073881;28;20166;-50
2023/05/08 01:55:20;;;;;;;15.80;12.52;;;16.00;99.90;;;;;;5072583;28;20508;-49
2023/05/08 01:57:59;;;;;;;14.88;13.20;;;16.00;99.90;;;;;;5074114;28;20671;-50
2023/05/08 02:00:27;;;;;;;15.35;13.70;;;16.00;99.90;;;;;;5072694;28;20209;-49
2023/05/08 02:03:16;;;;;;;16.10;14.27;;;15.90;99.90;;;;;;5073679;28;20214;-49
2023/05/08 02:05:45;;;;;;;17.35;12.40;;;16.00;99.90;;;;;;5072093;28;20224;-49
2023/05/08 02:08:34;;;;;;;13.93;12.45;;;15.90;99.90;;;;;;5072329;28;20166;-50
2023/05/08 02:11:22;;;;;;;;;;;;;;;;;;;;;
2023/05/08 02:13:51;;;;;;;14.68;12.38;;;15.90;99.90;;;;;;5073359;28;20180;-49
2023/05/08 02:16:45;;;;;;;14.95;11.25;;;15.90;99.90;;;;;;5073224;28;20192;-49
2023/05/08 02:19:18;;;;;;;14.82;11.32;;;15.90;99.90;;;;;;5072013;28;20260;-49
2023/05/08 02:21:46;;;;;;;12.80;9.95;;;15.90;99.90;;;;;;5071606;28;20318;-50
2023/05/08 02:24:43;;;;;;;12.60;10.13;;;15.80;99.90;;;;;;5071836;28;20639;-49
2023/05/08 02:27:13;;;;;;;9.80;8.73;;;15.70;99.90;;;;;;5072775;28;20231;-49
2023/05/08 02:29:42;;;;;;;13.30;8.90;;;15.70;99.90;;;;;;5071614;28;20257;-49
2023/05/08 02:32:08;;;;;;;9.57;8.57;;;15.70;99.90;;;;;;5071580;28;20597;-50
2023/05/08 02:35:11;;;;;;;9.65;8.65;;;15.70;99.90;;;;;;5071953;28;20166;-50
2023/05/08 02:37:48;;;;;;;15.30;8.02;;;15.70;99.90;;;;;;5071711;28;20181;-49
2023/05/08 02:40:18;;;;;;;8.82;7.82;;;15.80;99.90;;;;;;5071500;28;20237;-49
2023/05/08 02:42:58;;;;;;;9.45;8.45;;;15.70;99.90;;;;;;5071315;28;20261;-50
2023/05/08 02:46:15;;;;;;;8.80;7.97;;;15.70;99.90;;;;;;5071472;28;20166;-49
2023/05/08 02:49:03;;;;;;;9.73;7.97;;;15.70;99.90;;;;;;5073215;28;20249;-49
2023/05/08 02:52:01;;;;;;;10.98;8.18;;;15.80;99.90;;;;;;5090623;28;20181;-49
2023/05/08 02:58:00;;;;;;;11.23;7.78;;;15.70;99.90;;;;;;5070108;28;20173;-49
2023/05/08 03:00:36;;;;;;;9.80;7.72;;;15.70;99.90;;;;;;5069624;28;20221;-49
2023/05/08 03:03:24;;;;;;;8.52;7.68;;;15.70;99.90;;;;;;5080519;28;20238;-50
2023/05/08 03:06:26;;;;;;;10.00;8.07;;;15.70;99.90;;;;;;5090915;28;20243;-49
2023/05/08 03:09:09;;;;;;;8.43;7.60;;;15.60;99.90;;;;;;5091374;28;20263;-50
2023/05/08 03:12:04;;;;;;;;;;;;;;;;;;;;;
2023/05/08 03:14:41;;;;;;;8.55;7.65;;;15.50;99.90;;;;;;5091989;28;20662;-50
2023/05/08 03:17:34;;;;;;;12.07;9.38;;;15.50;99.90;;;;;;5092347;28;20157;-50
2023/05/08 03:20:08;;;;;;;11.98;8.98;;;15.50;99.90;;;;;;5091395;28;20527;-50
2023/05/08 03:22:37;;;;;;;10.30;8.60;;;15.50;99.90;;;;;;5091235;28;20637;-50
2023/05/08 03:25:08;;;;;;;10.43;8.57;;;15.40;99.90;;;;;;5091442;28;20173;-50
2023/05/08 03:27:40;;;;;;;10.80;8.30;;;15.40;99.90;;;;;;5092515;28;20172;-50
2023/05/08 03:30:22;;;;;;;9.70;8.68;;;15.40;99.90;;;;;;5090996;28;20169;-50
2023/05/08 03:32:52;;;;;;;10.68;9.45;;;15.30;99.90;;;;;;5090390;28;20272;-50
2023/05/08 03:35:22;;;;;;;9.50;8.35;;;15.30;99.90;;;;;;5090910;28;20192;-50
2023/05/08 03:37:48;;;;;;;8.88;8.02;;;;;;;;;;5092135;28;20728;-50
2023/05/08 03:40:23;;;;;;;9.02;8.13;;;15.20;99.90;;;;;;5090715;28;20272;-50
2023/05/08 03:43:03;;;;;;;9.23;8.23;;;15.10;99.90;;;;;;5090794;28;20165;-50
2023/05/08 03:45:48;;;;;;;14.02;9.00;;;12.90;99.90;;;;;;5091205;28;20633;-51
2023/05/08 03:48:20;;;;;;;11.80;9.25;;;15.20;99.90;;;;;;5090564;28;20185;-50
2023/05/08 03:50:50;;;;;;;14.30;9.13;;;15.10;99.90;;;;;;5090766;28;20641;-50
2023/05/08 03:53:22;;;;;;;12.80;9.93;;;15.20;99.90;;;;;;5091786;28;20595;-50
2023/05/08 03:55:48;;;;;;;12.05;9.68;;;15.10;99.90;;;;;;5091713;28;20669;-50
2023/05/08 03:58:32;;;;;;;11.77;9.60;;;15.10;99.90;;;;;;5090456;28;20173;-50
2023/05/08 04:01:19;;;;;;;11.80;9.18;;;15.10;99.90;;;;;;5092086;28;20204;-51
2023/05/08 04:04:21;;;;;;;10.93;9.18;;;15.10;99.90;;;;;;5090426;28;20252;-52
2023/05/08 04:07:02;;;;;;;10.68;8.95;;;15.10;99.90;;;;;;5091523;28;20221;-50
2023/05/08 04:09:48;;;;;;;;;;;;;;;;;;;;;
2023/05/08 04:12:43;;;;;;;9.45;8.43;;;15.10;99.90;;;;;;5091424;28;20176;-51
2023/05/08 04:15:30;;;;;;;10.95;8.82;;;15.10;99.90;;;;;;5084969;28;20176;-50
2023/05/08 04:21:28;;;;;;;11.00;8.63;;;15.00;99.90;;;;;;5091535;28;20219;-50
2023/05/08 04:24:07;;;;;;;8.95;7.72;;;14.90;99.90;;;;;;5091680;28;20638;-50
2023/05/08 04:26:43;;;;;;;8.80;8.00;;;14.90;99.90;;;;;;5090338;28;20258;-50
2023/05/08 04:29:15;;;;;;;8.48;7.47;;;14.90;99.90;;;;;;5091028;28;20267;-50
2023/05/08 04:31:49;;;;;;;8.65;7.80;;;14.90;99.90;;;;;;5090164;28;20639;-50
2023/05/08 04:34:21;;;;;;;9.52;7.72;;;14.90;99.90;;;;;;5091344;28;20165;-50
2023/05/08 04:36:53;;;;;;;8.95;8.05;;;15.00;99.90;;;;;;5090095;28;20165;-50
2023/05/08 04:39:22;;;;;;;11.63;8.75;;;15.00;99.90;;;;;;5090192;28;20181;-50
2023/05/08 04:42:02;;;;;;;11.32;8.60;;;15.00;99.90;;;;;;5091387;28;21068;-49
2023/05/08 04:44:46;;;;;;;8.95;8.13;;;15.10;99.90;;;;;;5090952;28;20184;-49
2023/05/08 04:47:36;;;;;;;10.43;8.65;;;15.10;99.90;;;;;;5094081;28;20176;-49
2023/05/08 04:50:23;;;;;;;8.82;7.93;;;15.10;99.90;;;;;;5094842;28;20268;-49
2023/05/08 04:53:13;;;;;;;9.00;8.07;;;15.10;99.90;;;;;;5094978;28;20288;-49
2023/05/08 04:55:38;;;;;;;8.95;7.75;;;15.20;99.90;;;;;;5094908;28;20178;-49
2023/05/08 04:58:04;;;;;;;11.35;7.85;;;15.20;99.90;;;;;;5094140;28;20170;-49
2023/05/08 05:00:30;;;;;;;8.43;7.55;;;15.30;99.90;;;;;;5094808;28;20249;-49
2023/05/08 05:02:55;;;;;;;10.05;8.38;;;15.30;99.90;;;;;;5095507;28;20293;-50
2023/05/08 05:05:21;;;;;;;9.30;8.25;;;15.30;99.90;;;;;;5094662;28;20608;-49
2023/05/08 05:07:46;;;;;;;10.55;8.18;;;15.30;99.90;;;;;;5094968;28;20177;-49
2023/05/08 05:10:12;;;;;;;9.40;7.72;;;15.40;99.90;;;;;;5094825;28;20177;-49
2023/05/08 05:12:37;;;;;;;8.85;7.95;;;15.30;99.90;;;;;;5094640;28;20173;-49
2023/05/08 05:15:03;;;;;;;9.68;8.23;;;;;;;;;;5094650;28;20162;-49
2023/05/08 05:17:30;;;;;;;10.48;8.68;;;15.30;99.90;;;;;;5094620;28;20189;-49
2023/05/08 05:19:56;;;;;;;11.07;7.95;;;15.30;99.90;;;;;;5094955;28;20172;-49
2023/05/08 05:22:22;;;;;;;8.63;7.68;;;15.20;99.90;;;;;;5094521;28;20724;-48
2023/05/08 05:24:48;;;;;;;12.45;9.43;;;;;;;;;;5093706;28;20248;-49
2023/05/08 05:27:13;;;;;;;17.02;8.80;;;15.30;99.90;;;;;;5092781;28;20268;-49
2023/05/08 05:29:39;;;;;;;10.85;9.48;;;15.40;99.90;;;;;;5092747;28;20169;-48
2023/05/08 05:32:06;;;;;;;11.80;10.30;;;15.50;99.90;;;;;;5093964;28;20631;-49
2023/05/08 05:34:31;;;;;;;23.23;15.80;;;15.50;99.90;;;;;;5094184;28;20161;-49
2023/05/08 05:36:57;;;;;;;15.52;12.48;;;;;;;;;;5094794;28;20172;-49
2023/05/08 05:39:23;;;;;;;18.25;12.30;;;15.50;99.90;;;;;;5094607;28;20655;-49
2023/05/08 05:41:49;;;;;;;16.42;12.90;;;;;;;;;;5094014;28;20239;-49
2023/05/08 05:44:15;;;;;;;19.55;14.68;;;15.50;99.90;;;;;;5094180;28;20240;-49
2023/05/08 05:46:40;;;;;;;19.67;12.27;;;15.60;99.90;;;;;;5094239;28;20272;-49
2023/05/08 05:49:06;;;;;;;17.75;13.02;;;15.60;99.90;;;;;;5094068;28;20557;-49
2023/05/08 05:51:31;;;;;;;13.20;11.82;;;15.60;99.90;;;;;;5094012;28;20523;-49
2023/05/08 05:53:57;;;;;;;15.10;11.77;;;15.70;99.90;;;;;;5094376;28;20165;-49
2023/05/08 05:56:22;;;;;;;20.45;12.55;;;17.30;99.90;;;;;;5093832;28;20173;-49
2023/05/08 05:58:48;;;;;;;13.18;11.38;;;15.60;99.90;;;;;;5093782;28;20215;-48
2023/05/08 06:01:14;;;;;;;13.25;11.45;;;15.50;99.90;;;;;;5093703;28;20295;-49
2023/05/08 06:03:39;;;;;;;16.35;13.10;;;15.50;99.90;;;;;;5094019;28;20173;-49
2023/05/08 06:06:05;;;;;;;12.95;11.32;;;;;;;;;;5093586;28;20245;-49
2023/05/08 06:08:31;;;;;;;13.75;11.90;;;15.50;99.90;;;;;;5093571;28;20212;-49
2023/05/08 06:10:57;;;;;;;15.80;12.30;;;15.50;99.90;;;;;;5092721;28;20642;-49
2023/05/08 06:13:23;;;;;;;16.75;12.20;;;;;;;;;;5092251;28;20582;-50
2023/05/08 06:15:49;;;;;;;15.23;13.20;;;15.60;99.90;;;;;;5091745;28;20161;-49
2023/05/08 06:18:15;;;;;;;21.20;14.77;;;15.70;99.90;;;;;;5091897;28;20567;-49
2023/05/08 06:20:41;;;;;;;20.80;15.32;;;;;;;;;;5091827;28;20213;-48
2023/05/08 06:23:07;;;;;;;20.90;15.25;;;15.70;99.90;;;;;;5091770;28;20161;-49
2023/05/08 06:25:32;;;;;;;19.00;15.25;;;15.70;99.90;;;;;;5091843;28;20252;-48
2023/05/08 06:27:58;;;;;;;17.98;14.57;;;15.80;99.90;;;;;;5091387;28;20172;-48
2023/05/08 06:30:24;;;;;;;16.17;13.63;;;;;;;;;;5091777;28;20436;-48
2023/05/08 06:32:49;;;;;;;15.57;13.90;;;15.80;99.90;;;;;;5091330;28;20177;-48
2023/05/08 06:35:17;;;;;;;14.90;13.40;;;15.90;99.90;;;;;;5090760;28;20538;-49
2023/05/08 06:37:43;;;;;;;15.45;12.65;;;16.10;99.90;;;;;;5091828;28;20166;-48
2023/05/08 06:40:09;;;;;;;14.38;12.88;;;16.50;99.90;;;;;;5090818;28;20182;-50
2023/05/08 06:42:35;;;;;;;16.42;13.35;;;;;;;;;;5091061;28;20518;-49
2023/05/08 06:45:02;;;;;;;14.18;12.73;;;16.80;99.90;;;;;;5091102;28;20219;-49
2023/05/08 06:47:27;;;;;;;14.88;13.45;;;;;;;;;;5091420;28;20199;-49
2023/05/08 06:49:53;;;;;;;14.50;13.15;;;17.10;99.90;;;;;;5091635;28;20169;-49
2023/05/08 06:52:19;;;;;;;16.13;14.45;;;17.40;99.90;;;;;;5091080;28;20176;-49
2023/05/08 06:54:45;;;;;;;17.80;13.90;;;17.50;99.90;;;;;;5090881;28;20165;-48
2023/05/08 06:57:13;;;;;;;21.97;16.40;;;17.40;99.90;;;;;;5090515;28;20912;-49
2023/05/08 06:59:39;;;;;;;19.95;16.60;;;;;;;;;;5090764;28;20634;-49
2023/05/08 07:02:05;;;;;;;18.63;16.67;;;;;;;;;;5090627;28;20678;-49
2023/05/08 07:04:31;;;;;;;17.02;15.38;;;17.30;99.90;;;;;;5090617;28;20209;-49
2023/05/08 07:06:57;;;;;;;21.02;18.83;;;;;;;;;;5089976;28;20181;-49
2023/05/08 07:09:23;;;;;;;24.48;20.08;;;;;;;;;;5091003;28;20177;-49
2023/05/08 07:11:50;;;;;;;18.40;16.50;;;17.30;99.90;;;;;;5090896;28;20284;-49
2023/05/08 07:14:16;;;;;;;17.48;15.57;;;;;;;;;;5090785;28;20260;-49
2023/05/08 07:16:41;;;;;;;19.75;16.13;;;17.70;99.90;;;;;;5090455;28;20752;-49
2023/05/08 07:19:07;;;;;;;17.33;15.63;;;17.80;99.90;;;;;;5090592;28;20201;-49
2023/05/08 07:21:33;;;;;;;18.25;14.75;;;;;;;;;;5090614;28;20216;-49
2023/05/08 07:23:58;;;;;;;15.90;14.20;;;18.10;99.90;;;;;;5090226;28;20171;-49
2023/05/08 07:26:24;;;;;;;14.45;13.00;;;18.10;99.90;;;;;;5090719;28;20173;-49
2023/05/08 07:28:52;;;;;;;13.25;11.77;;;18.30;99.90;;;;;;5090150;28;20653;-49
2023/05/08 07:31:18;;;;;;;13.90;12.25;;;;;;;;;;5090203;28;20717;-49
2023/05/08 07:33:45;;;;;;;14.93;13.35;;;;;;;;;;5089210;28;20260;-49
2023/05/08 07:36:11;;;;;;;16.75;13.05;;;18.40;99.90;;;;;;5090450;28;20177;-49
2023/05/08 07:38:37;;;;;;;14.57;13.18;;;;;;;;;;5090162;28;20222;-49
2023/05/08 07:41:04;;;;;;;15.80;12.85;;;18.80;99.90;;;;;;5090010;28;20242;-49
2023/05/08 07:43:32;;;;;;;15.13;13.57;;;18.90;99.90;;;;;;5090296;28;20192;-49
2023/05/08 07:45:58;;;;;;;14.45;13.05;;;;;;;;;;5090135;28;20184;-49
2023/05/08 07:48:24;;;;;;;14.10;12.77;;;;;;;;;;5090389;28;20252;-49
2023/05/08 07:50:50;;;;;;;14.40;12.20;;;19.10;99.90;;;;;;5090004;28;20188;-49
2023/05/08 07:53:16;;;;;;;14.77;12.27;;;19.10;99.90;;;;;;5089926;28;20599;-49
2023/05/08 07:55:42;;;;;;;14.27;12.15;;;19.00;99.90;;;;;;5089913;28;20169;-49
2023/05/08 07:58:08;;;;;;;14.27;12.88;;;19.00;99.90;;;;;;5090141;28;20169;-49
2023/05/08 08:00:34;;;;;;;12.07;10.55;;;19.10;99.90;;;;;;5089753;28;20211;-49
2023/05/08 08:03:00;;;;;;;12.77;11.48;;;;;;;;;;5089869;28;20157;-49
2023/05/08 08:05:25;;;;;;;11.55;10.48;;;18.90;99.90;;;;;;5090136;28;20270;-49
2023/05/08 08:07:51;;;;;;;11.68;10.57;;;18.90;99.90;;;;;;5089735;28;20252;-49
2023/05/08 08:10:17;;;;;;;11.32;10.15;;;;;;;;;;5089780;28;20180;-49
2023/05/08 08:12:44;;;;;;;12.52;11.23;;;;;;;;;;5088169;28;20249;-49
2023/05/08 08:15:09;;;;;;;13.38;9.88;;;18.60;99.90;;;;;;5090019;28;20172;-49
2023/05/08 08:17:36;;;;;;;10.50;9.40;;;18.70;99.90;;;;;;5089758;28;20177;-49
2023/05/08 08:20:02;;;;;;;11.43;10.38;;;;;;;;;;5091430;28;20169;-49
2023/05/08 08:22:28;;;;;;;11.10;9.07;;;;;;;;;;5093839;28;20184;-49
2023/05/08 08:24:55;;;;;;;10.52;9.50;;;18.80;99.90;;;;;;5091647;28;20260;-49
2023/05/08 08:27:20;;;;;;;10.95;8.85;;;18.80;99.90;;;;;;5093936;28;20173;-49
2023/05/08 08:29:46;;;;;;;10.52;9.30;;;18.90;99.90;;;;;;5093593;28;20226;-49
2023/05/08 08:32:11;;;;;;;10.63;8.40;;;19.20;99.90;;;;;;5093662;28;20171;-49
2023/05/08 08:34:37;;;;;;;11.63;9.30;;;;;;;;;;5093583;28;20193;-49
2023/05/08 08:37:06;;;;;;;10.20;8.55;;;19.70;99.90;;;;;;5093648;28;20184;-49
2023/05/08 08:39:33;;;;;;;9.45;8.55;;;19.80;99.90;;;;;;5093674;28;20168;-49
2023/05/08 08:41:59;;;;;;;10.93;8.98;;;19.70;99.90;;;;;;5093243;28;20873;-49
2023/05/08 08:44:25;;;;;;;9.40;8.40;;;19.70;99.90;;;;;;5094081;28;20174;-49
2023/05/08 08:46:51;;;;;;;8.73;7.93;;;20.10;99.90;;;;;;5093494;28;20157;-49
2023/05/08 08:49:21;;;;;;;9.98;8.25;;;20.10;99.90;;;;;;5093448;28;20192;-49
2023/05/08 08:51:54;;;;;;;8.60;7.75;;;20.30;99.90;;;;;;5093181;28;20257;-49
2023/05/08 08:54:23;;;;;;;9.02;8.13;;;20.40;99.90;;;;;;5093432;28;20256;-49
2023/05/08 08:56:50;;;;;;;9.65;8.30;;;20.40;99.90;;;;;;5093594;28;20170;-49
2023/05/08 08:59:17;;;;;;;8.98;8.07;;;20.70;99.90;;;;;;5093489;28;20230;-49
2023/05/08 09:01:57;;;;;;;9.10;8.20;;;20.90;99.90;;;;;;5093185;28;20247;-49
2023/05/08 09:04:26;;;;;;;9.98;8.10;;;21.10;99.90;;;;;;5093356;28;20173;-49
2023/05/08 09:06:53;;;;;;;9.35;7.78;;;21.20;99.90;;;;;;5092801;28;20268;-49
2023/05/08 09:09:19;;;;;;;8.65;7.43;;;;;;;;;;5093068;28;20234;-49
2023/05/08 09:11:45;;;;;;;9.95;7.50;;;21.50;99.90;;;;;;5092934;28;20634;-49
2023/05/08 09:14:11;;;;;;;10.55;7.03;;;21.30;99.90;;;;;;5092914;28;20157;-49
2023/05/08 09:16:36;;;;;;;7.10;6.40;;;21.40;99.90;;;;;;5092924;28;20206;-49
2023/05/08 09:19:02;;;;;;;7.47;6.78;;;21.30;99.90;;;;;;5093056;28;20190;-49
2023/05/08 09:21:28;;;;;;;9.23;7.00;;;21.40;99.90;;;;;;5091557;28;20216;-49
2023/05/08 09:23:58;;;;;;;7.68;6.82;;;21.20;99.90;;;;;;5093161;28;20252;-49
2023/05/08 09:26:32;;;;;;;8.50;7.47;;;21.10;99.90;;;;;;5092858;28;20176;-49
2023/05/08 09:29:07;;;;;;;8.63;7.03;;;21.00;99.90;;;;;;5092250;28;20587;-49
2023/05/08 09:31:40;;;;;;;8.75;7.00;;;21.00;99.90;;;;;;5091386;28;20211;-49
2023/05/08 09:34:08;;;;;;;8.52;6.72;;;20.90;99.90;;;;;;5092728;28;20256;-49
2023/05/08 09:36:33;;;;;;;7.88;6.63;;;20.80;99.90;;;;;;5092559;28;20216;-48
2023/05/08 09:39:00;;;;;;;8.10;7.07;;;;;;;;;;5092754;28;20192;-49
2023/05/08 09:41:25;;;;;;;7.35;6.75;;;21.30;99.90;;;;;;5092949;28;20205;-48
2023/05/08 09:44:05;;;;;;;7.22;6.43;;;21.50;99.90;;;;;;5092603;28;20176;-49
2023/05/08 09:46:35;;;;;;;6.30;5.70;;;21.50;99.90;;;;;;5092234;28;20574;-49
2023/05/08 09:49:02;;;;;;;7.35;5.68;;;21.60;99.90;;;;;;5092283;28;20208;-49
2023/05/08 09:51:30;;;;;;;8.82;5.78;;;21.80;99.90;;;;;;5092467;28;20179;-49
2023/05/08 09:53:57;;;;;;;10.68;6.68;;;21.80;99.90;;;;;;5092525;28;20676;-49
2023/05/08 09:56:38;;;;;;;7.03;6.43;;;21.80;99.90;;;;;;5092561;28;20180;-49
2023/05/08 09:59:26;;;;;;;6.80;6.15;;;21.60;99.90;;;;;;5092382;28;20169;-49
2023/05/08 10:01:52;;;;;;;7.65;6.80;;;21.30;99.90;;;;;;5092547;28;20209;-49
2023/05/08 10:04:30;;;;;;;9.25;8.18;;;21.20;99.90;;;;;;5091654;28;20165;-49
2023/05/08 10:06:57;;;;;;;11.32;8.38;;;;;;;;;;5092217;28;20256;-49
2023/05/08 10:09:23;;;;;;;10.27;7.47;;;21.30;99.90;;;;;;5092424;28;20170;-49
2023/05/08 10:11:54;;;;;;;8.43;6.78;;;21.40;99.90;;;;;;5091743;28;20215;-49
2023/05/08 10:14:20;;;;;;;9.38;6.10;;;21.70;99.90;;;;;;5091692;28;20169;-49
2023/05/08 10:16:48;;;;;;;9.55;7.60;;;21.60;99.90;;;;;;5091637;28;21124;-49
2023/05/08 10:19:19;;;;;;;9.70;8.18;;;21.90;99.90;;;;;;5091501;28;20227;-49
2023/05/08 10:21:52;;;;;;;10.07;7.18;;;22.00;99.90;;;;;;5091308;28;20678;-49
2023/05/08 10:24:27;;;;;;;9.00;7.00;;;22.00;99.90;;;;;;5091387;28;20557;-49
2023/05/08 10:27:04;;;;;;;8.25;7.40;;;21.70;99.90;;;;;;5091953;28;20603;-49
2023/05/08 10:29:51;;;;;;;8.40;7.68;;;21.90;99.90;;;;;;5091590;28;20165;-49
2023/05/08 10:32:20;;;;;;;9.75;8.95;;;21.70;99.90;;;;;;5091592;28;20176;-49
2023/05/08 10:34:52;;;;;;;8.73;7.47;;;22.00;99.90;;;;;;5091291;28;20247;-49
2023/05/08 10:37:18;;;;;;;7.70;6.88;;;;;;;;;;5091497;28;20511;-49
2023/05/08 10:39:45;;;;;;;11.85;8.85;;;21.70;99.90;;;;;;5091259;28;20198;-49
2023/05/08 10:42:14;;;;;;;8.52;7.65;;;21.70;99.90;;;;;;5090912;28;20219;-49
2023/05/08 10:44:40;;;;;;;10.18;7.43;;;;;;;;;;5091315;28;20173;-49
2023/05/08 10:47:23;;;;;;;7.25;6.55;;;22.00;99.90;;;;;;5091308;28;20210;-49
2023/05/08 10:50:26;;;;;;;7.38;6.68;;;22.00;99.90;;;;;;5090755;28;20626;-49
2023/05/08 10:52:59;;;;;;;8.32;7.32;;;22.00;99.90;;;;;;5091219;28;20637;-49
2023/05/08 10:55:30;;;;;;;9.50;7.63;;;21.90;99.90;;;;;;5091455;28;20222;-49
2023/05/08 10:58:08;;;;;;;9.27;8.18;;;21.70;99.90;;;;;;5091382;28;20242;-49
2023/05/08 11:00:51;;;;;;;7.45;6.75;;;21.80;99.90;;;;;;5090438;28;20601;-49
2023/05/08 11:03:18;;;;;;;7.07;6.38;;;21.70;99.90;;;;;;5091075;28;20173;-49
2023/05/08 11:05:45;;;;;;;7.20;6.57;;;21.80;99.90;;;;;;5090662;28;20338;-49
2023/05/08 11:08:18;;;;;;;8.10;7.00;;;22.10;99.90;;;;;;5090873;28;20173;-49
2023/05/08 11:11:05;;;;;;;8.70;6.40;;;22.00;99.90;;;;;;5090894;28;20173;-49
2023/05/08 11:13:36;;;;;;;8.52;7.30;;;22.10;99.90;;;;;;5090562;28;20165;-49
2023/05/08 11:16:02;;;;;;;7.22;6.55;;;22.30;99.90;;;;;;5090664;28;20633;-49
2023/05/08 11:18:29;;;;;;;9.65;6.57;;;;;;;;;;5090320;28;20173;-49
2023/05/08 11:21:00;;;;;;;8.60;7.68;;;22.20;99.90;;;;;;5090865;28;20229;-49
2023/05/08 11:23:30;;;;;;;9.50;6.70;;;22.30;99.90;;;;;;5090754;28;20172;-49
2023/05/08 11:26:01;;;;;;;8.32;7.53;;;22.20;99.90;;;;;;5091109;28;20180;-50
2023/05/08 11:28:30;;;;;;;9.93;8.27;;;22.20;99.90;;;;;;5090501;28;20177;-49
2023/05/08 11:30:55;;;;;;;9.85;8.00;;;22.70;99.90;;;;;;5090835;28;20660;-49
2023/05/08 11:33:22;;;;;;;8.70;7.90;;;22.60;99.90;;;;;;5090466;28;20192;-49
2023/05/08 11:35:56;;;;;;;8.32;7.53;;;22.60;99.90;;;;;;5090480;28;20191;-49
2023/05/08 11:38:34;;;;;;;11.45;7.38;;;22.80;99.90;;;;;;5090779;28;20248;-49
2023/05/08 11:41:20;;;;;;;7.85;7.13;;;22.80;99.90;;;;;;5090094;28;20211;-48
2023/05/08 11:44:04;;;;;;;9.32;7.05;;;22.80;99.90;;;;;;5090284;28;20175;-49
2023/05/08 11:46:50;;;;;;;8.98;7.20;;;22.60;99.90;;;;;;5090017;28;20172;-49
2023/05/08 11:49:17;;;;;;;8.40;6.75;;;22.40;99.90;;;;;;5090135;28;20638;-49
2023/05/08 11:51:48;;;;;;;7.63;6.80;;;22.80;99.90;;;;;;5090031;28;20779;-48
2023/05/08 11:54:17;;;;;;;7.50;6.80;;;22.90;99.90;;;;;;5089459;28;20668;-49
2023/05/08 11:56:46;;;;;;;6.97;6.28;;;22.80;99.90;;;;;;5090151;28;20169;-49
2023/05/08 11:59:12;;;;;;;7.80;7.10;;;;;;;;;;5090098;28;20169;-48
2023/05/08 12:01:38;;;;;;;7.65;6.95;;;22.60;99.90;;;;;;5089877;28;20720;-48
2023/05/08 12:04:05;;;;;;;6.70;6.10;;;22.60;99.90;;;;;;5089944;28;20165;-48
2023/05/08 12:06:32;;;;;;;7.65;6.35;;;22.80;99.90;;;;;;5089662;28;20307;-49
2023/05/08 12:08:59;;;;;;;8.23;5.93;;;22.90;99.90;;;;;;5089408;28;20168;-48
2023/05/08 12:11:25;;;;;;;6.43;5.82;;;22.80;99.90;;;;;;5090176;28;20226;-48
2023/05/08 12:13:52;;;;;;;6.32;5.55;;;23.00;99.90;;;;;;5089786;28;20192;-48
2023/05/08 12:16:18;;;;;;;5.55;5.07;;;;;;;;;;5089730;28;20169;-48
2023/05/08 12:18:43;;;;;;;6.32;5.65;;;23.00;99.90;;;;;;5089626;28;20172;-48
2023/05/08 12:21:10;;;;;;;7.55;5.40;;;23.30;99.90;;;;;;5089604;28;20214;-48
2023/05/08 12:23:37;;;;;;;7.05;6.10;;;23.50;99.90;;;;;;5089770;28;20165;-48
2023/05/08 12:26:03;;;;;;;6.72;6.05;;;;;;;;;;5089408;28;20532;-49
2023/05/08 12:28:33;;;;;;;8.45;6.10;;;24.00;99.90;;;;;;5089416;28;20247;-48
2023/05/08 12:30:59;;;;;;;8.13;5.93;;;24.10;99.90;;;;;;5089670;28;20194;-48
2023/05/08 12:33:25;;;;;;;7.55;6.85;;;24.40;99.90;;;;;;5089535;28;20171;-48
2023/05/08 12:35:50;;;;;;;6.75;6.15;;;24.20;99.90;;;;;;5089580;28;20172;-49
2023/05/08 12:38:16;;;;;;;7.63;6.93;;;24.10;99.90;;;;;;5089474;28;20172;-48
2023/05/08 12:40:44;;;;;;;7.93;6.93;;;23.70;99.90;;;;;;5089045;28;20279;-48
2023/05/08 12:43:10;;;;;;;8.27;6.95;;;24.00;99.90;;;;;;5089597;28;20173;-49
2023/05/08 12:45:38;;;;;;;7.68;6.97;;;23.50;99.90;;;;;;5089702;28;20196;-49
2023/05/08 12:48:09;;;;;;;9.70;5.55;;;23.60;99.90;;;;;;5089784;28;20242;-49
2023/05/08 12:50:39;;;;;;;9.98;6.15;;;23.70;99.90;;;;;;5089701;28;20576;-48
2023/05/08 12:53:09;;;;;;;6.50;5.80;;;23.30;99.90;;;;;;5088786;28;20200;-48
2023/05/08 12:55:36;;;;;;;8.43;6.10;;;23.40;99.90;;;;;;5087915;28;20658;-48
2023/05/08 12:58:12;;;;;;;6.25;5.65;;;23.80;99.90;;;;;;5089329;28;20181;-48
2023/05/08 13:00:39;;;;;;;5.93;5.43;;;23.90;99.90;;;;;;5087556;28;20428;-49
2023/05/08 13:03:06;;;;;;;6.47;5.45;;;23.60;99.90;;;;;;5089257;28;20184;-50
2023/05/08 13:05:33;;;;;;;5.40;4.90;;;23.50;99.90;;;;;;5089588;28;20225;-46
2023/05/08 13:08:00;;;;;;;5.28;4.78;;;23.60;99.90;;;;;;5092151;28;20165;-49
2023/05/08 13:10:26;;;;;;;5.32;4.82;;;;;;;;;;5092994;28;20180;-49
2023/05/08 13:12:52;;;;;;;5.72;5.15;;;;;;;;;;5093082;28;20169;-49
2023/05/08 13:15:18;;;;;;;5.25;4.75;;;;;;;;;;5092965;28;20209;-49
2023/05/08 13:17:43;;;;;;;5.95;5.03;;;23.90;99.90;;;;;;5092686;28;20171;-49
2023/05/08 13:20:10;;;;;;;8.00;4.82;;;23.80;99.90;;;;;;5092664;28;20187;-49
2023/05/08 13:22:35;;;;;;;9.38;4.70;;;24.00;99.90;;;;;;5092262;28;20184;-49
2023/05/08 13:25:01;;;;;;;5.13;4.53;;;;;;;;;;5092250;28;20176;-49
2023/05/08 13:27:27;;;;;;;4.05;3.65;;;23.00;99.90;;;;;;5092404;28;20176;-48
2023/05/08 13:29:53;;;;;;;4.90;3.90;;;;;;;;;;5093222;28;20790;-49
2023/05/08 13:32:19;;;;;;;6.15;3.47;;;;;;;;;;5092464;28;20169;-49
2023/05/08 13:34:44;;;;;;;4.53;4.00;;;23.60;99.90;;;;;;5092601;28;20169;-48